sensor_id;sensor_type;location;lat;lon;timestamp;P1;durP1;ratioP1;P2;durP2;ratioP2
71106;SDS011;58763;47.982;11.516;2023-10-13T00:01:57;8.30;;;2.72;;
71106;SDS011;58763;47.982;11.516;2023-10-13T00:04:29;8.70;;;2.67;;
71106;SDS011;58763;47.982;11.516;2023-10-13T00:06:56;8.38;;;2.55;;
71106;SDS011;58763;47.982;11.516;2023-10-13T00:09:23;9.18;;;2.80;;
71106;SDS011;58763;47.982;11.516;2023-10-13T00:11:57;9.65;;;2.75;;
71106;SDS011;58763;47.982;11.516;2023-10-13T00:14:25;9.95;;;3.03;;
71106;SDS011;58763;47.982;11.516;2023-10-13T00:16:59;5.80;;;2.53;;
71106;SDS011;58763;47.982;11.516;2023-10-13T00:19:30;10.38;;;3.10;;
71106;SDS011;58763;47.982;11.516;2023-10-13T00:22:23;8.05;;;2.90;;
71106;SDS011;58763;47.982;11.516;2023-10-13T00:24:50;8.85;;;2.60;;
71106;SDS011;58763;47.982;11.516;2023-10-13T00:27:17;7.85;;;2.50;;
71106;SDS011;58763;47.982;11.516;2023-10-13T00:30:05;9.55;;;2.95;;
71106;SDS011;58763;47.982;11.516;2023-10-13T00:32:47;9.98;;;2.78;;
71106;SDS011;58763;47.982;11.516;2023-10-13T00:35:22;8.32;;;2.60;;
71106;SDS011;58763;47.982;11.516;2023-10-13T00:37:55;7.07;;;2.72;;
71106;SDS011;58763;47.982;11.516;2023-10-13T00:40:23;8.38;;;2.70;;
71106;SDS011;58763;47.982;11.516;2023-10-13T00:43:07;6.40;;;2.55;;
71106;SDS011;58763;47.982;11.516;2023-10-13T00:45:55;7.38;;;2.80;;
71106;SDS011;58763;47.982;11.516;2023-10-13T00:51:02;6.25;;;2.17;;
71106;SDS011;58763;47.982;11.516;2023-10-13T00:53:32;9.93;;;2.97;;
71106;SDS011;58763;47.982;11.516;2023-10-13T00:56:02;7.75;;;2.40;;
71106;SDS011;58763;47.982;11.516;2023-10-13T00:58:44;6.88;;;2.30;;
71106;SDS011;58763;47.982;11.516;2023-10-13T01:01:17;9.93;;;2.50;;
71106;SDS011;58763;47.982;11.516;2023-10-13T01:03:50;6.78;;;2.58;;
71106;SDS011;58763;47.982;11.516;2023-10-13T01:06:38;9.45;;;2.30;;
71106;SDS011;58763;47.982;11.516;2023-10-13T01:09:06;8.32;;;2.63;;
71106;SDS011;58763;47.982;11.516;2023-10-13T01:11:42;5.78;;;2.65;;
71106;SDS011;58763;47.982;11.516;2023-10-13T01:14:12;10.35;;;2.80;;
71106;SDS011;58763;47.982;11.516;2023-10-13T01:16:43;7.95;;;2.38;;
71106;SDS011;58763;47.982;11.516;2023-10-13T01:19:10;7.93;;;2.40;;
71106;SDS011;58763;47.982;11.516;2023-10-13T01:21:40;7.18;;;2.65;;
71106;SDS011;58763;47.982;11.516;2023-10-13T01:24:06;6.95;;;2.28;;
71106;SDS011;58763;47.982;11.516;2023-10-13T01:26:34;9.20;;;2.30;;
71106;SDS011;58763;47.982;11.516;2023-10-13T01:31:37;9.27;;;2.45;;
71106;SDS011;58763;47.982;11.516;2023-10-13T01:34:17;7.40;;;2.42;;
71106;SDS011;58763;47.982;11.516;2023-10-13T01:36:51;10.23;;;2.60;;
71106;SDS011;58763;47.982;11.516;2023-10-13T01:39:22;5.50;;;2.20;;
71106;SDS011;58763;47.982;11.516;2023-10-13T01:41:55;10.10;;;2.90;;
71106;SDS011;58763;47.982;11.516;2023-10-13T01:44:24;9.35;;;2.92;;
71106;SDS011;58763;47.982;11.516;2023-10-13T01:46:57;9.77;;;2.88;;
71106;SDS011;58763;47.982;11.516;2023-10-13T01:49:34;8.38;;;2.70;;
71106;SDS011;58763;47.982;11.516;2023-10-13T01:52:07;9.20;;;2.65;;
71106;SDS011;58763;47.982;11.516;2023-10-13T01:54:37;5.07;;;2.03;;
71106;SDS011;58763;47.982;11.516;2023-10-13T01:57:09;6.72;;;2.60;;
71106;SDS011;58763;47.982;11.516;2023-10-13T01:59:39;9.93;;;2.67;;
71106;SDS011;58763;47.982;11.516;2023-10-13T02:02:10;9.55;;;2.53;;
71106;SDS011;58763;47.982;11.516;2023-10-13T02:04:40;8.83;;;2.80;;
71106;SDS011;58763;47.982;11.516;2023-10-13T02:07:21;9.85;;;2.63;;
71106;SDS011;58763;47.982;11.516;2023-10-13T02:09:51;8.73;;;2.35;;
71106;SDS011;58763;47.982;11.516;2023-10-13T02:12:20;12.25;;;2.50;;
71106;SDS011;58763;47.982;11.516;2023-10-13T02:14:53;6.97;;;2.40;;
71106;SDS011;58763;47.982;11.516;2023-10-13T02:17:18;6.88;;;2.25;;
71106;SDS011;58763;47.982;11.516;2023-10-13T02:19:46;5.93;;;2.30;;
71106;SDS011;58763;47.982;11.516;2023-10-13T02:22:12;6.70;;;2.15;;
71106;SDS011;58763;47.982;11.516;2023-10-13T02:24:55;7.30;;;2.50;;
71106;SDS011;58763;47.982;11.516;2023-10-13T02:27:26;7.22;;;2.30;;
71106;SDS011;58763;47.982;11.516;2023-10-13T02:29:52;10.23;;;2.35;;
71106;SDS011;58763;47.982;11.516;2023-10-13T02:32:24;7.25;;;2.58;;
71106;SDS011;58763;47.982;11.516;2023-10-13T02:34:52;7.03;;;2.50;;
71106;SDS011;58763;47.982;11.516;2023-10-13T02:37:17;7.60;;;2.25;;
71106;SDS011;58763;47.982;11.516;2023-10-13T02:39:44;7.35;;;2.53;;
71106;SDS011;58763;47.982;11.516;2023-10-13T02:42:10;8.13;;;2.38;;
71106;SDS011;58763;47.982;11.516;2023-10-13T02:44:55;10.55;;;2.50;;
71106;SDS011;58763;47.982;11.516;2023-10-13T02:47:23;6.15;;;2.35;;
71106;SDS011;58763;47.982;11.516;2023-10-13T02:49:50;6.22;;;2.35;;
71106;SDS011;58763;47.982;11.516;2023-10-13T02:52:15;11.32;;;2.60;;
71106;SDS011;58763;47.982;11.516;2023-10-13T02:54:41;5.30;;;2.42;;
71106;SDS011;58763;47.982;11.516;2023-10-13T02:57:16;8.55;;;2.35;;
71106;SDS011;58763;47.982;11.516;2023-10-13T02:59:42;8.23;;;2.30;;
71106;SDS011;58763;47.982;11.516;2023-10-13T03:02:12;7.43;;;2.33;;
71106;SDS011;58763;47.982;11.516;2023-10-13T03:04:54;8.25;;;2.35;;
71106;SDS011;58763;47.982;11.516;2023-10-13T03:07:39;6.85;;;2.22;;
71106;SDS011;58763;47.982;11.516;2023-10-13T03:10:08;6.60;;;2.53;;
71106;SDS011;58763;47.982;11.516;2023-10-13T03:12:38;8.20;;;2.50;;
71106;SDS011;58763;47.982;11.516;2023-10-13T03:15:05;8.10;;;2.70;;
71106;SDS011;58763;47.982;11.516;2023-10-13T03:17:40;5.82;;;2.50;;
71106;SDS011;58763;47.982;11.516;2023-10-13T03:20:09;5.97;;;2.30;;
71106;SDS011;58763;47.982;11.516;2023-10-13T03:22:40;6.00;;;2.65;;
71106;SDS011;58763;47.982;11.516;2023-10-13T03:25:10;9.23;;;2.42;;
71106;SDS011;58763;47.982;11.516;2023-10-13T03:27:40;5.97;;;2.28;;
71106;SDS011;58763;47.982;11.516;2023-10-13T03:30:25;6.20;;;2.40;;
71106;SDS011;58763;47.982;11.516;2023-10-13T03:33:10;7.22;;;2.60;;
71106;SDS011;58763;47.982;11.516;2023-10-13T03:35:40;10.77;;;2.22;;
71106;SDS011;58763;47.982;11.516;2023-10-13T03:38:17;10.48;;;2.60;;
71106;SDS011;58763;47.982;11.516;2023-10-13T03:40:44;6.60;;;2.47;;
71106;SDS011;58763;47.982;11.516;2023-10-13T03:43:31;7.35;;;2.03;;
71106;SDS011;58763;47.982;11.516;2023-10-13T03:45:57;7.63;;;2.45;;
71106;SDS011;58763;47.982;11.516;2023-10-13T03:48:33;7.03;;;2.53;;
71106;SDS011;58763;47.982;11.516;2023-10-13T03:51:06;9.98;;;2.67;;
71106;SDS011;58763;47.982;11.516;2023-10-13T03:53:41;6.30;;;2.65;;
71106;SDS011;58763;47.982;11.516;2023-10-13T03:56:23;7.28;;;2.70;;
71106;SDS011;58763;47.982;11.516;2023-10-13T03:58:54;7.13;;;2.72;;
71106;SDS011;58763;47.982;11.516;2023-10-13T04:01:29;8.65;;;2.80;;
71106;SDS011;58763;47.982;11.516;2023-10-13T04:04:15;5.82;;;2.25;;
71106;SDS011;58763;47.982;11.516;2023-10-13T04:06:56;7.85;;;2.30;;
71106;SDS011;58763;47.982;11.516;2023-10-13T04:09:44;8.70;;;2.72;;
71106;SDS011;58763;47.982;11.516;2023-10-13T04:12:13;6.47;;;2.55;;
71106;SDS011;58763;47.982;11.516;2023-10-13T04:14:44;8.82;;;5.57;;
71106;SDS011;58763;47.982;11.516;2023-10-13T04:17:29;9.27;;;3.08;;
71106;SDS011;58763;47.982;11.516;2023-10-13T04:19:59;11.60;;;3.20;;
71106;SDS011;58763;47.982;11.516;2023-10-13T04:25:22;6.38;;;2.53;;
71106;SDS011;58763;47.982;11.516;2023-10-13T04:28:09;6.60;;;2.95;;
71106;SDS011;58763;47.982;11.516;2023-10-13T04:30:59;7.45;;;2.72;;
71106;SDS011;58763;47.982;11.516;2023-10-13T04:33:37;9.75;;;2.50;;
71106;SDS011;58763;47.982;11.516;2023-10-13T04:36:06;6.75;;;2.60;;
71106;SDS011;58763;47.982;11.516;2023-10-13T04:38:45;10.85;;;3.17;;
71106;SDS011;58763;47.982;11.516;2023-10-13T04:41:30;7.18;;;2.50;;
71106;SDS011;58763;47.982;11.516;2023-10-13T04:44:06;7.30;;;2.58;;
71106;SDS011;58763;47.982;11.516;2023-10-13T04:46:52;6.60;;;2.33;;
71106;SDS011;58763;47.982;11.516;2023-10-13T04:49:33;9.63;;;2.30;;
71106;SDS011;58763;47.982;11.516;2023-10-13T04:52:03;6.72;;;2.83;;
71106;SDS011;58763;47.982;11.516;2023-10-13T04:54:34;8.25;;;2.50;;
71106;SDS011;58763;47.982;11.516;2023-10-13T04:57:21;8.55;;;2.75;;
71106;SDS011;58763;47.982;11.516;2023-10-13T05:00:02;6.70;;;2.50;;
71106;SDS011;58763;47.982;11.516;2023-10-13T05:02:32;9.98;;;2.75;;
71106;SDS011;58763;47.982;11.516;2023-10-13T05:05:14;7.07;;;2.20;;
71106;SDS011;58763;47.982;11.516;2023-10-13T05:07:40;6.03;;;2.70;;
71106;SDS011;58763;47.982;11.516;2023-10-13T05:10:25;6.53;;;2.38;;
71106;SDS011;58763;47.982;11.516;2023-10-13T05:13:10;7.88;;;2.40;;
71106;SDS011;58763;47.982;11.516;2023-10-13T05:15:54;8.95;;;2.63;;
71106;SDS011;58763;47.982;11.516;2023-10-13T05:18:38;8.63;;;2.90;;
71106;SDS011;58763;47.982;11.516;2023-10-13T05:21:23;7.38;;;2.35;;
71106;SDS011;58763;47.982;11.516;2023-10-13T05:24:07;8.73;;;2.60;;
71106;SDS011;58763;47.982;11.516;2023-10-13T05:26:52;7.13;;;2.40;;
71106;SDS011;58763;47.982;11.516;2023-10-13T05:29:40;8.48;;;2.47;;
71106;SDS011;58763;47.982;11.516;2023-10-13T05:32:25;7.68;;;2.75;;
71106;SDS011;58763;47.982;11.516;2023-10-13T05:35:11;8.18;;;2.72;;
71106;SDS011;58763;47.982;11.516;2023-10-13T05:37:56;6.53;;;2.40;;
71106;SDS011;58763;47.982;11.516;2023-10-13T05:40:50;7.40;;;2.47;;
71106;SDS011;58763;47.982;11.516;2023-10-13T05:43:40;9.95;;;2.50;;
71106;SDS011;58763;47.982;11.516;2023-10-13T05:46:24;8.55;;;2.60;;
71106;SDS011;58763;47.982;11.516;2023-10-13T05:48:50;5.55;;;2.38;;
71106;SDS011;58763;47.982;11.516;2023-10-13T05:54:01;7.60;;;2.85;;
71106;SDS011;58763;47.982;11.516;2023-10-13T05:56:47;6.50;;;2.20;;
71106;SDS011;58763;47.982;11.516;2023-10-13T05:59:33;6.15;;;2.10;;
71106;SDS011;58763;47.982;11.516;2023-10-13T06:02:20;8.45;;;2.45;;
71106;SDS011;58763;47.982;11.516;2023-10-13T06:05:06;9.93;;;2.30;;
71106;SDS011;58763;47.982;11.516;2023-10-13T06:07:51;7.32;;;2.65;;
71106;SDS011;58763;47.982;11.516;2023-10-13T06:10:36;9.70;;;2.65;;
71106;SDS011;58763;47.982;11.516;2023-10-13T06:13:21;8.88;;;2.80;;
71106;SDS011;58763;47.982;11.516;2023-10-13T06:16:13;8.25;;;2.42;;
71106;SDS011;58763;47.982;11.516;2023-10-13T06:18:59;6.78;;;2.28;;
71106;SDS011;58763;47.982;11.516;2023-10-13T06:21:44;7.30;;;2.53;;
71106;SDS011;58763;47.982;11.516;2023-10-13T06:24:29;8.57;;;2.92;;
71106;SDS011;58763;47.982;11.516;2023-10-13T06:27:14;5.95;;;2.10;;
71106;SDS011;58763;47.982;11.516;2023-10-13T06:30:00;9.13;;;2.72;;
71106;SDS011;58763;47.982;11.516;2023-10-13T06:32:28;6.20;;;2.60;;
71106;SDS011;58763;47.982;11.516;2023-10-13T06:34:57;7.60;;;2.50;;
71106;SDS011;58763;47.982;11.516;2023-10-13T06:37:26;6.85;;;2.30;;
71106;SDS011;58763;47.982;11.516;2023-10-13T06:40:03;9.75;;;2.80;;
71106;SDS011;58763;47.982;11.516;2023-10-13T06:42:50;9.38;;;2.90;;
71106;SDS011;58763;47.982;11.516;2023-10-13T06:45:15;13.85;;;2.72;;
71106;SDS011;58763;47.982;11.516;2023-10-13T06:47:42;9.50;;;2.60;;
71106;SDS011;58763;47.982;11.516;2023-10-13T06:50:14;7.63;;;2.67;;
71106;SDS011;58763;47.982;11.516;2023-10-13T06:52:41;8.20;;;2.60;;
71106;SDS011;58763;47.982;11.516;2023-10-13T06:55:08;7.03;;;2.40;;
71106;SDS011;58763;47.982;11.516;2023-10-13T06:57:42;8.80;;;2.95;;
71106;SDS011;58763;47.982;11.516;2023-10-13T07:00:10;7.40;;;2.38;;
71106;SDS011;58763;47.982;11.516;2023-10-13T07:02:47;10.90;;;2.55;;
71106;SDS011;58763;47.982;11.516;2023-10-13T07:05:16;8.75;;;2.40;;
71106;SDS011;58763;47.982;11.516;2023-10-13T07:07:42;8.70;;;2.70;;
71106;SDS011;58763;47.982;11.516;2023-10-13T07:10:10;7.95;;;2.75;;
71106;SDS011;58763;47.982;11.516;2023-10-13T07:12:37;7.68;;;2.50;;
71106;SDS011;58763;47.982;11.516;2023-10-13T07:15:06;10.70;;;2.63;;
71106;SDS011;58763;47.982;11.516;2023-10-13T07:17:48;8.32;;;2.63;;
71106;SDS011;58763;47.982;11.516;2023-10-13T07:20:20;7.57;;;2.17;;
71106;SDS011;58763;47.982;11.516;2023-10-13T07:22:58;8.98;;;2.75;;
71106;SDS011;58763;47.982;11.516;2023-10-13T07:25:31;5.82;;;2.17;;
71106;SDS011;58763;47.982;11.516;2023-10-13T07:28:01;9.45;;;2.55;;
71106;SDS011;58763;47.982;11.516;2023-10-13T07:30:34;10.57;;;2.60;;
71106;SDS011;58763;47.982;11.516;2023-10-13T07:33:20;8.35;;;2.30;;
71106;SDS011;58763;47.982;11.516;2023-10-13T07:35:46;7.55;;;2.10;;
71106;SDS011;58763;47.982;11.516;2023-10-13T07:38:17;12.27;;;2.53;;
71106;SDS011;58763;47.982;11.516;2023-10-13T07:40:46;10.45;;;2.58;;
71106;SDS011;58763;47.982;11.516;2023-10-13T07:43:16;8.17;;;2.20;;
71106;SDS011;58763;47.982;11.516;2023-10-13T07:45:46;4.90;;;2.30;;
71106;SDS011;58763;47.982;11.516;2023-10-13T07:48:19;7.78;;;2.40;;
71106;SDS011;58763;47.982;11.516;2023-10-13T07:51:05;8.05;;;2.38;;
71106;SDS011;58763;47.982;11.516;2023-10-13T07:53:40;8.52;;;2.47;;
71106;SDS011;58763;47.982;11.516;2023-10-13T07:56:09;7.07;;;2.13;;
71106;SDS011;58763;47.982;11.516;2023-10-13T07:58:38;7.47;;;2.30;;
71106;SDS011;58763;47.982;11.516;2023-10-13T08:01:21;12.85;;;2.80;;
71106;SDS011;58763;47.982;11.516;2023-10-13T08:03:47;9.40;;;2.90;;
71106;SDS011;58763;47.982;11.516;2023-10-13T08:06:15;9.55;;;2.58;;
71106;SDS011;58763;47.982;11.516;2023-10-13T08:08:41;8.80;;;2.40;;
71106;SDS011;58763;47.982;11.516;2023-10-13T08:11:10;9.68;;;2.50;;
71106;SDS011;58763;47.982;11.516;2023-10-13T08:13:40;7.53;;;2.20;;
71106;SDS011;58763;47.982;11.516;2023-10-13T08:16:12;8.30;;;2.50;;
71106;SDS011;58763;47.982;11.516;2023-10-13T08:18:49;7.68;;;2.15;;
71106;SDS011;58763;47.982;11.516;2023-10-13T08:21:19;11.32;;;2.67;;
71106;SDS011;58763;47.982;11.516;2023-10-13T08:23:57;5.95;;;2.30;;
71106;SDS011;58763;47.982;11.516;2023-10-13T08:26:26;6.53;;;2.45;;
71106;SDS011;58763;47.982;11.516;2023-10-13T08:29:03;6.65;;;2.30;;
71106;SDS011;58763;47.982;11.516;2023-10-13T08:31:44;7.28;;;2.13;;
71106;SDS011;58763;47.982;11.516;2023-10-13T08:34:29;12.63;;;2.78;;
71106;SDS011;58763;47.982;11.516;2023-10-13T08:37:06;11.13;;;2.53;;
71106;SDS011;58763;47.982;11.516;2023-10-13T08:39:47;8.38;;;2.55;;
71106;SDS011;58763;47.982;11.516;2023-10-13T08:42:35;8.88;;;2.22;;
71106;SDS011;58763;47.982;11.516;2023-10-13T08:45:08;8.38;;;2.40;;
71106;SDS011;58763;47.982;11.516;2023-10-13T08:47:52;6.90;;;2.50;;
71106;SDS011;58763;47.982;11.516;2023-10-13T08:50:35;6.50;;;1.80;;
71106;SDS011;58763;47.982;11.516;2023-10-13T08:53:18;9.32;;;2.38;;
71106;SDS011;58763;47.982;11.516;2023-10-13T08:58:31;7.03;;;2.00;;
71106;SDS011;58763;47.982;11.516;2023-10-13T09:01:16;12.25;;;2.20;;
71106;SDS011;58763;47.982;11.516;2023-10-13T09:04:08;6.03;;;2.35;;
71106;SDS011;58763;47.982;11.516;2023-10-13T09:14:51;7.18;;;2.33;;
71106;SDS011;58763;47.982;11.516;2023-10-13T09:17:26;8.32;;;1.90;;
71106;SDS011;58763;47.982;11.516;2023-10-13T09:22:46;10.70;;;2.53;;
71106;SDS011;58763;47.982;11.516;2023-10-13T09:25:27;11.02;;;2.20;;
71106;SDS011;58763;47.982;11.516;2023-10-13T09:28:01;7.07;;;2.10;;
71106;SDS011;58763;47.982;11.516;2023-10-13T09:30:42;5.95;;;2.00;;
71106;SDS011;58763;47.982;11.516;2023-10-13T09:33:12;7.20;;;2.05;;
71106;SDS011;58763;47.982;11.516;2023-10-13T09:35:46;9.63;;;2.05;;
71106;SDS011;58763;47.982;11.516;2023-10-13T09:38:18;7.57;;;2.25;;
71106;SDS011;58763;47.982;11.516;2023-10-13T09:40:44;6.63;;;2.10;;
71106;SDS011;58763;47.982;11.516;2023-10-13T09:43:16;6.03;;;2.03;;
71106;SDS011;58763;47.982;11.516;2023-10-13T09:45:43;7.63;;;2.00;;
71106;SDS011;58763;47.982;11.516;2023-10-13T09:48:37;7.70;;;2.28;;
71106;SDS011;58763;47.982;11.516;2023-10-13T09:51:16;6.28;;;1.70;;
71106;SDS011;58763;47.982;11.516;2023-10-13T09:54:20;7.35;;;1.95;;
71106;SDS011;58763;47.982;11.516;2023-10-13T09:56:46;7.75;;;1.90;;
71106;SDS011;58763;47.982;11.516;2023-10-13T09:59:22;5.82;;;1.80;;
71106;SDS011;58763;47.982;11.516;2023-10-13T10:02:03;4.57;;;1.80;;
71106;SDS011;58763;47.982;11.516;2023-10-13T10:04:34;7.65;;;1.88;;
71106;SDS011;58763;47.982;11.516;2023-10-13T10:07:23;7.60;;;2.08;;
71106;SDS011;58763;47.982;11.516;2023-10-13T10:09:56;6.65;;;1.65;;
71106;SDS011;58763;47.982;11.516;2023-10-13T10:12:30;5.10;;;2.03;;
71106;SDS011;58763;47.982;11.516;2023-10-13T10:18:01;8.48;;;2.08;;
71106;SDS011;58763;47.982;11.516;2023-10-13T10:20:34;7.93;;;2.08;;
71106;SDS011;58763;47.982;11.516;2023-10-13T10:23:09;7.78;;;1.92;;
71106;SDS011;58763;47.982;11.516;2023-10-13T10:25:47;8.35;;;1.88;;
71106;SDS011;58763;47.982;11.516;2023-10-13T10:28:17;6.05;;;1.90;;
71106;SDS011;58763;47.982;11.516;2023-10-13T10:30:44;5.88;;;1.70;;
71106;SDS011;58763;47.982;11.516;2023-10-13T10:33:10;8.05;;;1.63;;
71106;SDS011;58763;47.982;11.516;2023-10-13T10:35:37;3.75;;;1.67;;
71106;SDS011;58763;47.982;11.516;2023-10-13T10:38:09;11.57;;;2.10;;
71106;SDS011;58763;47.982;11.516;2023-10-13T10:43:34;5.60;;;1.48;;
71106;SDS011;58763;47.982;11.516;2023-10-13T10:48:51;5.07;;;1.60;;
71106;SDS011;58763;47.982;11.516;2023-10-13T10:51:21;3.90;;;1.40;;
71106;SDS011;58763;47.982;11.516;2023-10-13T10:53:50;5.28;;;1.60;;
71106;SDS011;58763;47.982;11.516;2023-10-13T10:56:18;6.03;;;1.77;;
71106;SDS011;58763;47.982;11.516;2023-10-13T10:58:50;6.28;;;1.48;;
71106;SDS011;58763;47.982;11.516;2023-10-13T11:04:19;5.22;;;1.60;;
71106;SDS011;58763;47.982;11.516;2023-10-13T11:06:39;7.22;;;1.48;;
71106;SDS011;58763;47.982;11.516;2023-10-13T11:09:11;6.88;;;1.40;;
71106;SDS011;58763;47.982;11.516;2023-10-13T11:11:47;5.45;;;1.20;;
71106;SDS011;58763;47.982;11.516;2023-10-13T11:14:28;5.18;;;1.40;;
71106;SDS011;58763;47.982;11.516;2023-10-13T11:16:58;6.43;;;1.50;;
71106;SDS011;58763;47.982;11.516;2023-10-13T11:19:39;5.13;;;1.20;;
71106;SDS011;58763;47.982;11.516;2023-10-13T11:22:10;6.53;;;1.40;;
71106;SDS011;58763;47.982;11.516;2023-10-13T11:24:57;5.47;;;1.58;;
71106;SDS011;58763;47.982;11.516;2023-10-13T11:27:28;7.03;;;1.35;;
71106;SDS011;58763;47.982;11.516;2023-10-13T11:30:13;6.70;;;1.42;;
71106;SDS011;58763;47.982;11.516;2023-10-13T11:32:43;4.43;;;1.30;;
71106;SDS011;58763;47.982;11.516;2023-10-13T11:35:09;5.15;;;1.60;;
71106;SDS011;58763;47.982;11.516;2023-10-13T11:37:50;8.48;;;1.70;;
71106;SDS011;58763;47.982;11.516;2023-10-13T11:40:29;5.78;;;1.45;;
71106;SDS011;58763;47.982;11.516;2023-10-13T11:43:33;6.32;;;1.42;;
71106;SDS011;58763;47.982;11.516;2023-10-13T11:46:21;7.63;;;1.60;;
71106;SDS011;58763;47.982;11.516;2023-10-13T11:49:01;8.20;;;1.70;;
71106;SDS011;58763;47.982;11.516;2023-10-13T11:51:42;5.35;;;1.60;;
71106;SDS011;58763;47.982;11.516;2023-10-13T11:54:13;6.20;;;1.20;;
71106;SDS011;58763;47.982;11.516;2023-10-13T11:56:40;6.82;;;1.40;;
71106;SDS011;58763;47.982;11.516;2023-10-13T11:59:06;5.47;;;1.52;;
71106;SDS011;58763;47.982;11.516;2023-10-13T12:01:42;6.10;;;1.70;;
71106;SDS011;58763;47.982;11.516;2023-10-13T12:04:30;4.20;;;1.35;;
71106;SDS011;58763;47.982;11.516;2023-10-13T12:06:58;5.30;;;1.40;;
71106;SDS011;58763;47.982;11.516;2023-10-13T12:09:42;5.68;;;1.30;;
71106;SDS011;58763;47.982;11.516;2023-10-13T12:12:21;11.32;;;1.80;;
71106;SDS011;58763;47.982;11.516;2023-10-13T12:14:48;18.42;;;1.83;;
71106;SDS011;58763;47.982;11.516;2023-10-13T12:17:27;8.88;;;1.98;;
71106;SDS011;58763;47.982;11.516;2023-10-13T12:20:06;6.50;;;1.60;;
71106;SDS011;58763;47.982;11.516;2023-10-13T12:22:36;5.30;;;1.63;;
71106;SDS011;58763;47.982;11.516;2023-10-13T12:25:10;7.28;;;1.77;;
71106;SDS011;58763;47.982;11.516;2023-10-13T12:27:55;5.72;;;1.70;;
71106;SDS011;58763;47.982;11.516;2023-10-13T12:30:38;7.38;;;1.60;;
71106;SDS011;58763;47.982;11.516;2023-10-13T12:33:20;7.30;;;1.35;;
71106;SDS011;58763;47.982;11.516;2023-10-13T12:35:50;5.85;;;1.42;;
71106;SDS011;58763;47.982;11.516;2023-10-13T12:38:39;4.30;;;1.17;;
71106;SDS011;58763;47.982;11.516;2023-10-13T12:41:11;7.43;;;1.50;;
71106;SDS011;58763;47.982;11.516;2023-10-13T12:43:55;5.75;;;1.58;;
71106;SDS011;58763;47.982;11.516;2023-10-13T12:46:39;5.82;;;1.30;;
71106;SDS011;58763;47.982;11.516;2023-10-13T12:49:24;5.43;;;1.10;;
71106;SDS011;58763;47.982;11.516;2023-10-13T12:52:11;9.95;;;1.73;;
71106;SDS011;58763;47.982;11.516;2023-10-13T12:54:56;5.90;;;1.58;;
71106;SDS011;58763;47.982;11.516;2023-10-13T12:57:22;5.63;;;1.27;;
71106;SDS011;58763;47.982;11.516;2023-10-13T12:59:55;6.82;;;1.50;;
71106;SDS011;58763;47.982;11.516;2023-10-13T13:02:21;4.75;;;1.15;;
71106;SDS011;58763;47.982;11.516;2023-10-13T13:04:51;5.63;;;1.70;;
71106;SDS011;58763;47.982;11.516;2023-10-13T13:07:24;5.82;;;1.55;;
71106;SDS011;58763;47.982;11.516;2023-10-13T13:09:56;6.10;;;1.52;;
71106;SDS011;58763;47.982;11.516;2023-10-13T13:12:25;9.00;;;1.60;;
71106;SDS011;58763;47.982;11.516;2023-10-13T13:14:53;6.55;;;1.60;;
71106;SDS011;58763;47.982;11.516;2023-10-13T13:17:20;4.07;;;1.33;;
71106;SDS011;58763;47.982;11.516;2023-10-13T13:19:46;9.98;;;1.55;;
71106;SDS011;58763;47.982;11.516;2023-10-13T13:22:12;5.38;;;1.45;;
71106;SDS011;58763;47.982;11.516;2023-10-13T13:24:40;8.32;;;1.70;;
71106;SDS011;58763;47.982;11.516;2023-10-13T13:27:11;8.50;;;1.65;;
71106;SDS011;58763;47.982;11.516;2023-10-13T13:29:44;7.05;;;1.85;;
71106;SDS011;58763;47.982;11.516;2023-10-13T13:32:10;7.53;;;1.50;;
71106;SDS011;58763;47.982;11.516;2023-10-13T13:34:49;11.18;;;1.42;;
71106;SDS011;58763;47.982;11.516;2023-10-13T13:37:39;6.78;;;1.40;;
71106;SDS011;58763;47.982;11.516;2023-10-13T13:40:07;6.22;;;1.58;;
71106;SDS011;58763;47.982;11.516;2023-10-13T13:42:44;5.10;;;1.50;;
71106;SDS011;58763;47.982;11.516;2023-10-13T13:48:00;9.52;;;1.70;;
71106;SDS011;58763;47.982;11.516;2023-10-13T13:50:33;6.60;;;1.63;;
71106;SDS011;58763;47.982;11.516;2023-10-13T13:53:05;5.68;;;1.70;;
71106;SDS011;58763;47.982;11.516;2023-10-13T13:55:34;5.03;;;1.38;;
71106;SDS011;58763;47.982;11.516;2023-10-13T13:58:00;6.68;;;1.70;;
71106;SDS011;58763;47.982;11.516;2023-10-13T14:00:25;5.90;;;1.50;;
71106;SDS011;58763;47.982;11.516;2023-10-13T14:03:04;7.40;;;1.60;;
71106;SDS011;58763;47.982;11.516;2023-10-13T14:05:31;5.40;;;1.23;;
71106;SDS011;58763;47.982;11.516;2023-10-13T14:07:56;8.13;;;1.80;;
71106;SDS011;58763;47.982;11.516;2023-10-13T14:10:23;7.35;;;1.73;;
71106;SDS011;58763;47.982;11.516;2023-10-13T14:13:01;8.63;;;1.55;;
71106;SDS011;58763;47.982;11.516;2023-10-13T14:15:38;9.75;;;1.85;;
71106;SDS011;58763;47.982;11.516;2023-10-13T14:18:12;7.25;;;1.70;;
71106;SDS011;58763;47.982;11.516;2023-10-13T14:20:42;8.65;;;1.52;;
71106;SDS011;58763;47.982;11.516;2023-10-13T14:23:08;7.70;;;1.50;;
71106;SDS011;58763;47.982;11.516;2023-10-13T14:25:37;7.00;;;1.50;;
71106;SDS011;58763;47.982;11.516;2023-10-13T14:28:04;8.35;;;1.65;;
71106;SDS011;58763;47.982;11.516;2023-10-13T14:30:30;7.03;;;1.70;;
71106;SDS011;58763;47.982;11.516;2023-10-13T14:32:56;8.85;;;1.80;;
71106;SDS011;58763;47.982;11.516;2023-10-13T14:35:24;7.13;;;1.80;;
71106;SDS011;58763;47.982;11.516;2023-10-13T14:37:51;7.60;;;1.73;;
71106;SDS011;58763;47.982;11.516;2023-10-13T14:40:17;6.45;;;1.80;;
71106;SDS011;58763;47.982;11.516;2023-10-13T14:42:47;7.78;;;1.70;;
71106;SDS011;58763;47.982;11.516;2023-10-13T14:45:13;6.72;;;1.52;;
71106;SDS011;58763;47.982;11.516;2023-10-13T14:47:44;6.30;;;1.73;;
71106;SDS011;58763;47.982;11.516;2023-10-13T14:50:10;4.95;;;1.50;;
71106;SDS011;58763;47.982;11.516;2023-10-13T14:52:47;5.90;;;1.60;;
71106;SDS011;58763;47.982;11.516;2023-10-13T14:55:13;6.78;;;1.55;;
71106;SDS011;58763;47.982;11.516;2023-10-13T14:57:49;9.15;;;1.40;;
71106;SDS011;58763;47.982;11.516;2023-10-13T15:00:16;8.93;;;1.85;;
71106;SDS011;58763;47.982;11.516;2023-10-13T15:02:50;9.15;;;1.63;;
71106;SDS011;58763;47.982;11.516;2023-10-13T15:05:18;7.47;;;1.63;;
71106;SDS011;58763;47.982;11.516;2023-10-13T15:07:43;7.97;;;1.55;;
71106;SDS011;58763;47.982;11.516;2023-10-13T15:10:11;7.50;;;1.67;;
71106;SDS011;58763;47.982;11.516;2023-10-13T15:12:42;5.82;;;1.42;;
71106;SDS011;58763;47.982;11.516;2023-10-13T15:17:45;8.55;;;1.65;;
71106;SDS011;58763;47.982;11.516;2023-10-13T15:20:11;8.80;;;1.73;;
71106;SDS011;58763;47.982;11.516;2023-10-13T15:22:43;10.80;;;2.03;;
71106;SDS011;58763;47.982;11.516;2023-10-13T15:25:09;9.25;;;1.70;;
71106;SDS011;58763;47.982;11.516;2023-10-13T15:27:48;6.97;;;1.90;;
71106;SDS011;58763;47.982;11.516;2023-10-13T15:30:27;6.45;;;1.77;;
71106;SDS011;58763;47.982;11.516;2023-10-13T15:33:10;8.70;;;1.63;;
71106;SDS011;58763;47.982;11.516;2023-10-13T15:35:41;8.43;;;1.75;;
71106;SDS011;58763;47.982;11.516;2023-10-13T15:38:10;9.05;;;1.85;;
71106;SDS011;58763;47.982;11.516;2023-10-13T15:40:41;9.40;;;1.92;;
71106;SDS011;58763;47.982;11.516;2023-10-13T15:43:07;11.75;;;1.73;;
71106;SDS011;58763;47.982;11.516;2023-10-13T15:45:33;14.93;;;2.30;;
71106;SDS011;58763;47.982;11.516;2023-10-13T15:48:05;9.40;;;1.90;;
71106;SDS011;58763;47.982;11.516;2023-10-13T15:50:38;6.43;;;1.70;;
71106;SDS011;58763;47.982;11.516;2023-10-13T15:53:05;11.05;;;2.10;;
71106;SDS011;58763;47.982;11.516;2023-10-13T15:55:35;8.05;;;1.80;;
71106;SDS011;58763;47.982;11.516;2023-10-13T15:58:04;6.75;;;1.70;;